< < Back
Terminal Aerodrome Forecast


Current Version              Previous Versions:   1  2  3  4  5  6  7  8  9  

Terminal Aerodrome Forecast

327
FTUS42 KGSP 202300
TAFGSP
TAF
KGSP 202332Z 2100/2124 04004KT P6SM SCT250
     FM211000 30003KT P6SM FEW250
     FM211700 25007KT P6SM SCT060=

Latest METAR

631
SAUS70 KWBC 212000
MTRGSP
METAR KGSP 211953Z 24006KT 10SM CLR 29/18 A2988 RMK AO2 SLP106
T02940183


USA.gov is the U.S. government's official web portal to all federal, state and local government web resources and services.